Time;durP1;ratioP1;P1;durP2;ratioP2;P2;SDS_P1;SDS_P2;PMS_P1;PMS_P2;Temp;Humidity;BMP_temperature;BMP_pressure;BME280_temperature;BME280_humidity;BME280_pressure;Samples;Min_cycle;Max_cycle;Signal;HPM_P1;HPM_P2
2020/12/31 00:02:09;;;;;;;0.55;0.32;;;3.20;91.10;;;;;;5079309;28;20316;-72
2020/12/31 00:04:35;;;;;;;0.68;0.40;;;3.20;90.10;;;;;;5079217;28;20026;-71
2020/12/31 00:07:01;;;;;;;1.02;0.50;;;3.20;89.30;;;;;;5079252;28;20017;-71
2020/12/31 00:09:26;;;;;;;0.63;0.30;;;3.20;89.60;;;;;;5079165;28;20419;-71
2020/12/31 00:11:52;;;;;;;0.93;0.30;;;3.30;88.80;;;;;;5079185;28;20377;-71
2020/12/31 00:14:17;;;;;;;0.40;0.30;;;3.30;88.70;;;;;;5061307;28;20028;-71
2020/12/31 00:16:43;;;;;;;0.80;0.40;;;3.30;90.30;;;;;;5078985;28;20419;-71
2020/12/31 00:19:09;;;;;;;0.32;0.20;;;3.20;91.50;;;;;;5078999;28;20040;-72
2020/12/31 00:21:34;;;;;;;1.35;0.70;;;3.20;92.00;;;;;;5061211;28;20055;-72
2020/12/31 00:24:00;;;;;;;1.25;0.70;;;3.20;93.20;;;;;;5078716;28;20112;-72
2020/12/31 00:26:25;;;;;;;0.47;0.30;;;3.10;93.60;;;;;;5079049;28;20162;-72
2020/12/31 00:28:51;;;;;;;0.90;0.63;;;3.20;91.00;;;;;;5078998;28;20158;-72
2020/12/31 00:31:17;;;;;;;0.40;0.30;;;3.20;91.50;;;;;;5078907;28;20096;-72
2020/12/31 00:33:42;;;;;;;0.65;0.22;;;3.20;91.50;;;;;;5078750;28;20396;-71
2020/12/31 00:36:08;;;;;;;0.70;0.38;;;3.30;88.90;;;;;;5078545;28;20142;-71
2020/12/31 00:38:34;;;;;;;0.20;0.20;;;3.30;88.40;;;;;;5078858;28;20031;-71
2020/12/31 00:41:01;;;;;;;1.00;0.30;;;3.40;89.00;;;;;;5078838;28;20317;-71
2020/12/31 00:43:27;;;;;;;0.40;0.20;;;3.40;88.80;;;;;;5078574;28;20401;-71
2020/12/31 00:45:53;;;;;;;0.30;0.20;;;3.40;89.40;;;;;;5078416;28;20024;-72
2020/12/31 00:48:18;;;;;;;0.20;0.20;;;3.40;89.50;;;;;;5060538;28;20102;-72
2020/12/31 00:50:44;;;;;;;0.40;0.20;;;3.40;91.30;;;;;;5078442;28;20031;-72
2020/12/31 00:53:10;;;;;;;0.20;0.10;;;3.40;91.60;;;;;;5060557;28;20064;-72
2020/12/31 00:55:35;;;;;;;3.28;1.10;;;3.40;92.20;;;;;;5078383;28;20355;-72
2020/12/31 00:58:01;;;;;;;1.50;0.98;;;3.40;93.60;;;;;;5078405;28;20029;-72
2020/12/31 01:00:27;;;;;;;1.73;0.70;;;3.40;93.90;;;;;;5060453;28;20044;-72
2020/12/31 01:02:53;;;;;;;1.52;0.80;;;3.40;92.70;;;;;;5078135;28;20321;-71
2020/12/31 01:05:18;;;;;;;1.67;0.25;;;3.30;93.90;;;;;;5060141;28;20374;-71
2020/12/31 01:07:44;;;;;;;0.13;0.10;;;3.30;91.50;;;;;;5078310;28;20029;-72
2020/12/31 01:10:10;;;;;;;0.10;0.10;;;3.30;91.60;;;;;;5060296;28;20056;-71
2020/12/31 01:12:37;;;;;;;0.30;0.10;;;3.40;89.10;;;;;;5077981;28;20056;-71
2020/12/31 01:15:04;;;;;;;0.10;0.10;;;3.50;88.10;;;;;;5077789;28;20024;-71
2020/12/31 01:17:30;;;;;;;0.10;0.10;;;3.60;88.70;;;;;;5077855;28;20028;-71
2020/12/31 01:19:56;;;;;;;0.10;0.10;;;3.60;88.00;;;;;;5077749;28;20025;-71
2020/12/31 01:22:21;;;;;;;0.15;0.10;;;3.60;87.50;;;;;;5077746;28;20028;-71
2020/12/31 01:24:47;;;;;;;0.20;0.15;;;3.60;88.20;;;;;;5078145;28;20111;-71
2020/12/31 01:27:14;;;;;;;0.22;0.20;;;3.60;88.20;;;;;;5077644;28;20405;-71
2020/12/31 01:29:40;;;;;;;0.10;0.10;;;3.70;87.30;;;;;;5077569;28;20024;-71
2020/12/31 01:32:06;;;;;;;0.17;0.10;;;3.70;87.40;;;;;;5060104;28;20437;-71
2020/12/31 01:34:32;;;;;;;0.20;0.20;;;3.70;86.40;;;;;;5077400;28;20020;-71
2020/12/31 01:36:58;;;;;;;0.10;0.10;;;3.70;86.30;;;;;;5077388;28;20037;-71
2020/12/31 01:39:24;;;;;;;0.10;0.10;;;3.80;85.30;;;;;;5077627;28;20101;-71
2020/12/31 01:41:50;;;;;;;0.10;0.10;;;3.90;85.10;;;;;;5077353;28;20107;-71
2020/12/31 01:44:16;;;;;;;0.10;0.10;;;4.00;85.20;;;;;;5077375;28;20017;-71
2020/12/31 01:46:46;;;;;;;0.10;0.10;;;3.90;85.10;;;;;;5077403;28;20025;-71
2020/12/31 01:49:16;;;;;;;0.10;0.10;;;3.90;86.20;;;;;;5077018;28;20079;-71
2020/12/31 01:51:45;;;;;;;0.10;0.10;;;3.90;84.60;;;;;;5077192;28;20029;-70
2020/12/31 01:54:11;;;;;;;0.10;0.10;;;3.90;84.40;;;;;;5077107;28;20052;-71
2020/12/31 01:56:37;;;;;;;0.10;0.10;;;4.10;83.30;;;;;;5077075;28;20028;-71
2020/12/31 01:59:03;;;;;;;0.10;0.10;;;4.10;83.80;;;;;;5059342;28;20027;-71
2020/12/31 02:01:29;;;;;;;0.10;0.10;;;4.20;82.10;;;;;;5077314;28;20436;-71
2020/12/31 02:03:56;;;;;;;1.52;0.10;;;4.20;79.90;;;;;;5076987;28;20343;-71
2020/12/31 02:06:23;;;;;;;1.08;0.20;;;4.30;85.40;;;;;;5076977;28;20029;-71
2020/12/31 02:08:50;;;;;;;0.45;0.20;;;4.20;86.90;;;;;;5077203;28;20100;-71
2020/12/31 02:11:18;;;;;;;0.55;0.20;;;4.10;88.00;;;;;;5076910;28;20028;-71
2020/12/31 02:13:45;;;;;;;0.10;0.10;;;4.00;86.60;;;;;;5076951;28;20107;-71
2020/12/31 02:16:16;;;;;;;1.30;0.20;;;3.90;86.80;;;;;;5058642;28;20028;-71
2020/12/31 02:19:06;;;;;;;0.10;0.10;;;3.80;87.10;;;;;;5076711;28;20044;-71
2020/12/31 02:21:36;;;;;;;0.47;0.20;;;3.80;86.60;;;;;;5077093;28;20019;-71
2020/12/31 02:24:07;;;;;;;3.00;0.10;;;3.80;87.20;;;;;;5076963;28;20048;-71
2020/12/31 02:26:35;;;;;;;0.10;0.10;;;3.80;87.10;;;;;;5076776;28;20035;-71
2020/12/31 02:29:04;;;;;;;0.25;0.15;;;3.80;86.10;;;;;;5076654;28;20028;-71
2020/12/31 02:31:29;;;;;;;0.10;0.10;;;3.90;85.00;;;;;;5076702;28;20108;-71
2020/12/31 02:33:56;;;;;;;0.10;0.10;;;3.90;84.30;;;;;;5076606;28;20377;-71
2020/12/31 02:36:25;;;;;;;0.38;0.10;;;3.90;83.50;;;;;;5076693;28;20325;-71
2020/12/31 02:38:51;;;;;;;0.10;0.10;;;4.00;83.60;;;;;;5076525;28;20059;-71
2020/12/31 02:41:17;;;;;;;0.52;0.20;;;4.00;83.70;;;;;;5076605;28;20029;-71
2020/12/31 02:43:43;;;;;;;0.30;0.20;;;3.90;84.10;;;;;;5058863;28;20074;-71
2020/12/31 02:46:14;;;;;;;0.35;0.15;;;3.90;84.40;;;;;;5076730;28;20029;-71
2020/12/31 02:48:41;;;;;;;0.22;0.20;;;3.90;84.20;;;;;;5076470;28;20227;-71
2020/12/31 02:51:07;;;;;;;0.43;0.25;;;3.90;83.80;;;;;;5076450;28;20404;-71
2020/12/31 02:53:34;;;;;;;0.55;0.10;;;3.90;84.60;;;;;;5076715;28;20363;-71
2020/12/31 02:56:00;;;;;;;0.30;0.20;;;3.90;84.50;;;;;;5076355;28;20366;-71
2020/12/31 02:58:25;;;;;;;0.10;0.10;;;3.80;86.80;;;;;;5076390;28;20444;-71
2020/12/31 03:00:51;;;;;;;0.70;0.20;;;3.80;88.30;;;;;;5076702;28;20033;-71
2020/12/31 03:03:17;;;;;;;0.55;0.20;;;3.60;89.50;;;;;;5076369;28;20071;-71
2020/12/31 03:05:43;;;;;;;0.25;0.10;;;3.50;90.20;;;;;;5058513;28;20029;-71
2020/12/31 03:08:09;;;;;;;0.63;0.20;;;3.40;90.80;;;;;;5076317;28;20473;-71
2020/12/31 03:10:35;;;;;;;0.10;0.10;;;3.30;90.60;;;;;;5058565;28;20369;-71
2020/12/31 03:13:00;;;;;;;0.10;0.10;;;3.30;90.10;;;;;;5076299;28;20052;-71
2020/12/31 03:15:26;;;;;;;0.40;0.20;;;3.40;90.30;;;;;;5076437;28;20037;-71
2020/12/31 03:17:52;;;;;;;0.10;0.10;;;3.40;89.50;;;;;;5058789;28;20032;-71
2020/12/31 03:20:18;;;;;;;0.52;0.25;;;3.40;90.20;;;;;;5076165;28;20118;-71
2020/12/31 03:22:43;;;;;;;0.50;0.30;;;3.40;89.70;;;;;;5076069;28;20070;-71
2020/12/31 03:25:09;;;;;;;0.50;0.20;;;3.40;89.60;;;;;;5076368;28;20154;-71
2020/12/31 03:27:35;;;;;;;0.40;0.20;;;3.40;89.00;;;;;;5076309;28;20028;-71
2020/12/31 03:30:03;;;;;;;0.28;0.20;;;3.50;87.60;;;;;;5079884;28;20028;-71
2020/12/31 03:32:28;;;;;;;0.30;0.20;;;3.60;86.90;;;;;;5079864;28;20028;-71
2020/12/31 03:34:54;;;;;;;0.22;0.20;;;3.70;86.80;;;;;;5079685;28;20078;-71
2020/12/31 03:37:19;;;;;;;0.13;0.13;;;3.70;85.10;;;;;;5062088;28;20355;-71
2020/12/31 03:39:45;;;;;;;0.20;0.20;;;3.80;87.40;;;;;;5061995;28;20024;-71
2020/12/31 03:42:11;;;;;;;0.20;0.20;;;3.70;88.20;;;;;;5079704;28;20032;-71
2020/12/31 03:44:37;;;;;;;0.30;0.20;;;3.70;86.30;;;;;;5079603;28;20046;-71
2020/12/31 03:47:03;;;;;;;0.47;0.20;;;3.70;86.40;;;;;;5079868;28;20061;-71
2020/12/31 03:49:29;;;;;;;0.10;0.10;;;3.70;86.80;;;;;;5079347;28;20404;-71
2020/12/31 03:51:55;;;;;;;0.47;0.35;;;3.70;85.90;;;;;;5079443;28;20024;-71
2020/12/31 03:54:20;;;;;;;0.40;0.38;;;3.70;86.00;;;;;;5079855;28;20037;-71
2020/12/31 03:56:46;;;;;;;0.30;0.20;;;3.70;85.90;;;;;;5061651;28;20084;-71
2020/12/31 03:59:12;;;;;;;0.30;0.20;;;3.80;85.20;;;;;;5079578;28;20033;-71
2020/12/31 04:01:37;;;;;;;0.20;0.20;;;3.80;85.10;;;;;;5079513;28;20021;-71
2020/12/31 04:04:03;;;;;;;0.25;0.20;;;3.80;85.00;;;;;;5061537;28;20025;-71
2020/12/31 04:06:29;;;;;;;0.10;0.10;;;3.80;83.80;;;;;;5079233;28;20320;-71
2020/12/31 04:08:55;;;;;;;0.20;0.17;;;3.90;83.70;;;;;;5079223;28;20029;-71
2020/12/31 04:11:21;;;;;;;0.20;0.20;;;4.00;83.90;;;;;;5079163;28;20025;-71
2020/12/31 04:13:47;;;;;;;0.40;0.20;;;4.10;80.60;;;;;;5061365;28;20413;-71
2020/12/31 04:16:13;;;;;;;0.20;0.10;;;4.10;82.90;;;;;;5079137;28;20070;-71
2020/12/31 04:18:39;;;;;;;0.10;0.10;;;4.10;84.20;;;;;;5079009;28;20028;-71
2020/12/31 04:21:05;;;;;;;0.25;0.17;;;4.10;84.90;;;;;;5078996;28;20404;-71
2020/12/31 04:23:31;;;;;;;0.10;0.10;;;4.10;84.40;;;;;;5078856;28;20037;-71
2020/12/31 04:25:57;;;;;;;0.38;0.10;;;4.00;84.90;;;;;;5061093;28;20020;-71
2020/12/31 04:28:22;;;;;;;0.10;0.10;;;4.00;84.30;;;;;;5078817;28;20059;-71
2020/12/31 04:30:49;;;;;;;0.80;0.17;;;4.00;84.30;;;;;;5079032;28;20115;-71
2020/12/31 04:33:15;;;;;;;1.85;0.17;;;4.00;84.40;;;;;;5061012;28;20048;-71
2020/12/31 04:35:41;;;;;;;0.30;0.20;;;4.00;85.70;;;;;;5060848;28;20029;-71
2020/12/31 04:38:07;;;;;;;0.22;0.20;;;4.00;85.90;;;;;;5078664;28;20104;-71
2020/12/31 04:40:33;;;;;;;0.60;0.30;;;3.90;85.70;;;;;;5077973;28;20021;-71
2020/12/31 04:42:59;;;;;;;1.23;0.30;;;3.80;88.10;;;;;;5078569;28;20027;-71
2020/12/31 04:45:26;;;;;;;0.17;0.17;;;3.80;85.50;;;;;;5078789;28;20308;-71
2020/12/31 04:48:21;;;;;;;0.73;0.45;;;3.80;86.60;;;;;;5078210;28;20052;-71
2020/12/31 04:50:49;;;;;;;0.38;0.30;;;3.80;86.50;;;;;;5078386;28;20062;-71
2020/12/31 04:53:14;;;;;;;0.60;0.30;;;3.80;86.80;;;;;;5078620;28;20055;-71
2020/12/31 04:55:43;;;;;;;0.82;0.20;;;3.80;86.50;;;;;;5078444;28;20112;-71
2020/12/31 04:58:11;;;;;;;0.90;0.20;;;3.80;86.90;;;;;;5078229;28;20027;-71
2020/12/31 05:00:37;;;;;;;0.10;0.10;;;3.80;86.60;;;;;;5078518;28;20025;-71
2020/12/31 05:03:03;;;;;;;0.30;0.28;;;3.80;86.00;;;;;;5078427;28;20020;-71
2020/12/31 05:05:30;;;;;;;1.58;0.30;;;3.80;85.50;;;;;;5078179;28;20375;-71
2020/12/31 05:07:57;;;;;;;0.95;0.30;;;3.80;87.10;;;;;;5078051;28;20104;-71
2020/12/31 05:10:23;;;;;;;0.45;0.20;;;3.80;87.90;;;;;;5078018;28;20029;-71
2020/12/31 05:12:58;;;;;;;0.57;0.40;;;3.80;88.60;;;;;;5078022;28;20020;-71
2020/12/31 05:15:42;;;;;;;2.13;0.85;;;3.80;88.00;;;;;;5078118;28;20037;-71
2020/12/31 05:18:20;;;;;;;1.52;0.70;;;3.80;86.80;;;;;;5077849;28;20028;-71
2020/12/31 05:20:50;;;;;;;1.23;0.88;;;3.80;86.40;;;;;;5077818;28;20028;-71
2020/12/31 05:23:19;;;;;;;3.45;0.70;;;3.80;87.10;;;;;;5077940;28;20029;-71
2020/12/31 05:25:46;;;;;;;0.95;0.65;;;3.80;86.90;;;;;;5077657;28;20036;-71
2020/12/31 05:28:29;;;;;;;0.73;0.47;;;3.80;88.10;;;;;;5077544;28;20443;-71
2020/12/31 05:31:13;;;;;;;0.52;0.30;;;3.80;88.20;;;;;;5077845;28;20111;-71
2020/12/31 05:33:40;;;;;;;0.30;0.20;;;3.80;88.70;;;;;;5077756;28;20032;-71
2020/12/31 05:36:16;;;;;;;1.20;0.30;;;3.80;89.00;;;;;;5077650;28;20039;-71
2020/12/31 05:38:48;;;;;;;1.13;0.40;;;3.70;89.40;;;;;;5077684;28;20025;-71
2020/12/31 05:41:14;;;;;;;5.47;0.80;;;3.70;89.10;;;;;;5077508;28;20070;-71
2020/12/31 05:43:41;;;;;;;1.38;0.75;;;3.70;86.70;;;;;;5077502;28;20020;-71
2020/12/31 05:46:09;;;;;;;1.55;1.13;;;3.70;85.10;;;;;;5077529;28;20028;-71
2020/12/31 05:48:35;;;;;;;3.03;1.02;;;3.70;83.80;;;;;;5059330;28;20440;-71
2020/12/31 05:51:23;;;;;;;3.65;1.27;;;3.70;83.50;;;;;;5076865;28;20358;-71
2020/12/31 05:53:49;;;;;;;1.75;0.90;;;3.70;84.40;;;;;;5077006;28;20119;-71
2020/12/31 05:56:17;;;;;;;1.38;0.90;;;3.70;83.30;;;;;;5077006;28;20111;-71
2020/12/31 05:58:49;;;;;;;1.90;1.20;;;3.70;83.50;;;;;;5077014;28;20107;-71
2020/12/31 06:01:16;;;;;;;0.93;0.55;;;3.70;85.80;;;;;;5059320;28;20021;-71
2020/12/31 06:03:50;;;;;;;0.60;0.50;;;3.70;85.70;;;;;;5077189;28;20158;-71
2020/12/31 06:06:18;;;;;;;0.90;0.60;;;3.60;85.30;;;;;;5059184;28;20093;-71
2020/12/31 06:09:03;;;;;;;2.63;1.73;;;3.70;86.10;;;;;;5076971;28;20077;-71
2020/12/31 06:11:35;;;;;;;1.58;1.08;;;3.70;84.50;;;;;;5077010;28;20024;-71
2020/12/31 06:14:04;;;;;;;1.83;1.20;;;3.60;84.70;;;;;;5076953;28;20029;-71
2020/12/31 06:16:36;;;;;;;1.42;1.00;;;3.60;84.60;;;;;;5077079;28;20062;-71
2020/12/31 06:19:39;;;;;;;2.42;1.50;;;3.60;84.30;;;;;;5076841;28;20104;-71
2020/12/31 06:22:10;;;;;;;2.47;1.55;;;3.60;83.90;;;;;;5059793;28;20048;-71
2020/12/31 06:24:45;;;;;;;1.77;1.30;;;3.60;83.50;;;;;;5077251;28;20029;-71
2020/12/31 06:27:16;;;;;;;3.58;2.28;;;3.60;84.60;;;;;;5076806;28;20037;-71
2020/12/31 06:29:42;;;;;;;2.90;2.00;;;3.70;83.60;;;;;;5076640;28;20425;-71
2020/12/31 06:32:35;;;;;;;1.88;1.27;;;3.70;82.40;;;;;;5076714;28;20031;-71
2020/12/31 06:35:04;;;;;;;2.10;1.50;;;3.70;83.30;;;;;;5076552;28;20121;-71
2020/12/31 06:37:31;;;;;;;4.25;2.90;;;3.70;84.30;;;;;;5076674;28;20320;-71
2020/12/31 06:40:24;;;;;;;2.20;1.83;;;3.70;85.50;;;;;;5076828;28;20016;-71
2020/12/31 06:43:14;;;;;;;1.63;1.20;;;3.70;86.50;;;;;;5076607;28;20017;-71
2020/12/31 06:45:43;;;;;;;2.28;1.40;;;3.70;85.90;;;;;;5076514;28;20036;-71
2020/12/31 06:48:26;;;;;;;1.52;0.93;;;3.70;84.00;;;;;;5076616;28;20076;-71
2020/12/31 06:50:59;;;;;;;1.48;1.00;;;3.60;84.30;;;;;;5076521;28;20029;-71
2020/12/31 06:53:45;;;;;;;1.55;1.00;;;3.60;84.60;;;;;;5076863;28;20312;-71
2020/12/31 06:56:12;;;;;;;1.45;1.10;;;3.60;84.50;;;;;;5076605;28;20024;-71
2020/12/31 06:58:39;;;;;;;1.90;1.23;;;3.70;84.50;;;;;;5076407;28;20411;-71
2020/12/31 07:01:25;;;;;;;2.13;1.60;;;3.60;83.50;;;;;;5076432;28;20078;-71
2020/12/31 07:03:52;;;;;;;2.50;1.73;;;3.60;83.40;;;;;;5078955;28;20044;-71
2020/12/31 07:06:20;;;;;;;2.15;1.40;;;3.50;83.10;;;;;;5080300;28;20493;-71
2020/12/31 07:08:54;;;;;;;2.38;1.20;;;3.50;83.20;;;;;;5080345;28;20024;-71
2020/12/31 07:11:36;;;;;;;1.42;1.00;;;3.50;83.60;;;;;;5080417;28;20370;-71
2020/12/31 07:14:23;;;;;;;1.55;1.10;;;3.60;83.20;;;;;;5080301;28;20020;-71
2020/12/31 07:16:55;;;;;;;2.13;1.40;;;3.60;81.10;;;;;;5080281;28;20036;-71
2020/12/31 07:19:22;;;;;;;2.40;1.70;;;3.60;81.70;;;;;;5080289;28;20017;-71
2020/12/31 07:21:50;;;;;;;2.20;1.65;;;3.60;81.20;;;;;;5080051;28;20032;-71
2020/12/31 07:24:27;;;;;;;1.83;1.08;;;3.70;81.60;;;;;;5079935;28;20028;-71
2020/12/31 07:26:57;;;;;;;2.33;1.40;;;3.60;81.00;;;;;;5079991;28;20412;-71
2020/12/31 07:29:31;;;;;;;3.83;1.50;;;3.60;82.20;;;;;;5080205;28;20031;-71
2020/12/31 07:31:59;;;;;;;2.60;1.60;;;3.70;83.50;;;;;;5079978;28;20082;-71
2020/12/31 07:34:29;;;;;;;1.20;0.77;;;3.70;83.70;;;;;;5080073;28;20024;-71
2020/12/31 07:37:00;;;;;;;5.93;1.70;;;3.70;85.50;;;;;;5080051;28;20107;-71
2020/12/31 07:39:26;;;;;;;1.80;1.00;;;3.80;85.80;;;;;;5062014;28;20439;-71
2020/12/31 07:42:14;;;;;;;1.70;0.90;;;3.80;86.10;;;;;;5079993;28;20021;-71
2020/12/31 07:44:59;;;;;;;2.45;1.05;;;3.80;86.50;;;;;;5079610;28;20024;-71
2020/12/31 07:47:24;;;;;;;1.17;0.75;;;3.80;86.80;;;;;;5079807;28;20031;-71
2020/12/31 07:49:52;;;;;;;2.30;1.50;;;3.90;87.40;;;;;;5061683;28;20037;-71
2020/12/31 07:52:19;;;;;;;2.05;1.20;;;3.90;87.40;;;;;;5079509;28;20101;-71
2020/12/31 07:54:45;;;;;;;2.22;1.30;;;3.90;87.20;;;;;;5079844;28;20036;-71
2020/12/31 07:57:13;;;;;;;2.95;1.70;;;3.90;87.60;;;;;;5079430;28;20400;-71
2020/12/31 07:59:42;;;;;;;5.15;1.67;;;3.90;87.20;;;;;;5079452;28;20047;-71
2020/12/31 08:02:08;;;;;;;2.53;1.90;;;3.90;86.20;;;;;;5079621;28;20031;-71
2020/12/31 08:04:34;;;;;;;7.82;2.13;;;3.90;86.00;;;;;;5079334;28;20092;-71
2020/12/31 08:07:03;;;;;;;3.15;1.80;;;3.90;87.70;;;;;;5079302;28;20028;-71
2020/12/31 08:09:29;;;;;;;2.13;1.52;;;3.90;87.30;;;;;;5079260;28;20027;-71
2020/12/31 08:11:54;;;;;;;2.10;1.27;;;3.80;86.10;;;;;;5079167;28;20111;-71
2020/12/31 08:14:20;;;;;;;2.38;1.80;;;3.80;85.90;;;;;;5060545;28;20032;-71
2020/12/31 08:17:02;;;;;;;2.65;2.00;;;3.80;85.90;;;;;;5078885;28;20024;-71
2020/12/31 08:19:29;;;;;;;5.45;2.83;;;3.70;84.60;;;;;;5079153;28;20092;-71
2020/12/31 08:22:03;;;;;;;2.90;2.22;;;3.70;84.10;;;;;;5078979;28;20324;-71
2020/12/31 08:24:32;;;;;;;3.83;2.50;;;3.70;83.70;;;;;;5079404;28;20033;-71
2020/12/31 08:26:58;;;;;;;3.13;2.10;;;3.60;84.20;;;;;;5079171;28;20074;-71
2020/12/31 08:29:28;;;;;;;3.53;1.50;;;3.60;84.10;;;;;;5078821;28;20025;-71
2020/12/31 08:31:54;;;;;;;2.03;1.42;;;3.50;83.90;;;;;;5078849;28;20028;-71
2020/12/31 08:34:26;;;;;;;2.05;1.63;;;3.50;84.30;;;;;;5060937;28;20023;-71
2020/12/31 08:36:53;;;;;;;2.47;1.88;;;3.50;84.00;;;;;;5078703;28;20024;-71
2020/12/31 08:39:20;;;;;;;3.65;2.58;;;3.40;84.00;;;;;;5078632;28;20020;-71
2020/12/31 08:41:58;;;;;;;3.65;2.15;;;3.40;83.60;;;;;;5078696;28;20016;-71
2020/12/31 08:44:25;;;;;;;2.85;2.25;;;3.30;83.40;;;;;;5078768;28;20301;-71
2020/12/31 08:46:51;;;;;;;4.13;2.70;;;3.30;83.80;;;;;;5078773;28;20028;-71
2020/12/31 08:49:26;;;;;;;3.00;2.20;;;3.30;84.20;;;;;;5078300;28;20040;-71
2020/12/31 08:51:52;;;;;;;2.45;1.52;;;3.30;83.70;;;;;;5078458;28;20105;-71
2020/12/31 08:54:19;;;;;;;2.40;1.65;;;3.40;82.60;;;;;;5060470;28;20036;-71
2020/12/31 08:56:45;;;;;;;2.00;1.17;;;3.50;83.80;;;;;;5078484;28;20028;-71
2020/12/31 08:59:12;;;;;;;2.22;1.65;;;3.60;83.40;;;;;;5078386;28;20100;-71
2020/12/31 09:01:42;;;;;;;1.85;1.23;;;3.80;82.90;;;;;;5078210;28;20029;-71
2020/12/31 09:04:18;;;;;;;1.73;1.15;;;3.90;82.60;;;;;;5078081;28;20025;-71
2020/12/31 09:06:48;;;;;;;1.38;1.00;;;4.00;83.20;;;;;;5078473;28;20081;-71
2020/12/31 09:09:19;;;;;;;1.88;1.25;;;4.00;80.70;;;;;;5078092;28;20028;-71
2020/12/31 09:12:01;;;;;;;1.35;1.02;;;4.00;80.90;;;;;;5060257;28;20033;-71
2020/12/31 09:14:27;;;;;;;2.17;1.50;;;4.10;79.70;;;;;;5078015;28;20469;-71
2020/12/31 09:16:54;;;;;;;2.22;1.40;;;4.10;81.00;;;;;;5077845;28;20028;-71
2020/12/31 09:19:19;;;;;;;3.63;1.60;;;4.10;81.00;;;;;;5077870;28;20066;-71
2020/12/31 09:21:46;;;;;;;1.88;1.33;;;4.10;80.80;;;;;;5060076;28;20434;-71
2020/12/31 09:24:16;;;;;;;2.00;1.42;;;4.10;81.50;;;;;;5077970;28;20112;-71
2020/12/31 09:26:51;;;;;;;1.75;1.17;;;4.00;82.40;;;;;;5077854;28;20024;-71
2020/12/31 09:29:18;;;;;;;1.73;1.20;;;4.00;83.20;;;;;;5059950;28;20028;-71
2020/12/31 09:31:43;;;;;;;3.70;1.45;;;3.90;81.80;;;;;;5077642;28;20096;-71
2020/12/31 09:34:09;;;;;;;2.03;1.42;;;3.90;82.90;;;;;;5077755;28;20106;-71
2020/12/31 09:36:34;;;;;;;1.50;1.00;;;3.80;84.00;;;;;;5077495;28;20075;-71
2020/12/31 09:39:00;;;;;;;2.17;1.40;;;3.80;84.50;;;;;;5077448;28;20046;-71
2020/12/31 09:41:25;;;;;;;4.43;2.78;;;3.80;83.50;;;;;;5059740;28;20024;-71
2020/12/31 09:43:52;;;;;;;3.10;2.10;;;3.80;81.70;;;;;;5077651;28;20020;-71
2020/12/31 09:46:21;;;;;;;2.58;2.20;;;3.80;80.70;;;;;;5077288;28;20036;-71
2020/12/31 09:48:48;;;;;;;2.75;1.98;;;3.70;81.20;;;;;;5077093;28;20052;-71
2020/12/31 09:51:15;;;;;;;2.78;1.88;;;3.80;81.70;;;;;;5077726;28;20037;-71
2020/12/31 09:53:40;;;;;;;2.13;1.70;;;3.90;81.30;;;;;;5077361;28;20122;-71
2020/12/31 09:56:06;;;;;;;2.03;1.40;;;4.00;80.20;;;;;;5077315;28;20033;-71
2020/12/31 09:58:32;;;;;;;2.75;1.63;;;4.00;81.70;;;;;;5077348;28;20308;-71
2020/12/31 10:00:58;;;;;;;2.25;1.70;;;4.10;82.50;;;;;;5077321;28;20405;-71
2020/12/31 10:03:25;;;;;;;3.00;1.90;;;4.10;81.20;;;;;;5077112;28;20025;-71
2020/12/31 10:05:52;;;;;;;5.72;2.10;;;4.20;81.10;;;;;;5076947;28;20032;-71
2020/12/31 10:08:18;;;;;;;2.60;1.65;;;4.30;81.20;;;;;;5076706;28;20103;-71
2020/12/31 10:10:43;;;;;;;2.33;1.75;;;4.60;80.20;;;;;;5088389;28;20043;-71
2020/12/31 10:13:09;;;;;;;1.00;0.70;;;5.50;78.00;;;;;;5079134;28;20081;-71
2020/12/31 10:15:35;;;;;;;2.17;0.63;;;6.70;74.90;;;;;;5097017;28;20469;-72
2020/12/31 10:18:01;;;;;;;1.15;0.68;;;7.90;73.60;;;;;;5097350;28;20024;-72
2020/12/31 10:20:26;;;;;;;0.90;0.47;;;9.00;69.60;;;;;;5097046;28;20043;-72
2020/12/31 10:22:52;;;;;;;0.98;0.38;;;9.70;67.50;;;;;;5079046;28;20051;-72
2020/12/31 10:25:18;;;;;;;0.60;0.30;;;10.50;63.30;;;;;;5097052;28;20032;-72
2020/12/31 10:27:43;;;;;;;1.27;0.60;;;11.40;62.90;;;;;;5097250;28;20062;-72
2020/12/31 10:30:09;;;;;;;1.90;0.50;;;12.00;60.30;;;;;;5096969;28;20120;-72
2020/12/31 10:32:34;;;;;;;0.93;0.43;;;12.00;60.20;;;;;;5097072;28;20028;-72
2020/12/31 10:35:00;;;;;;;1.52;0.88;;;12.20;62.00;;;;;;5079161;28;20035;-72
2020/12/31 10:37:26;;;;;;;0.68;0.50;;;12.00;63.20;;;;;;5096341;28;20023;-72
2020/12/31 10:39:51;;;;;;;2.53;0.60;;;11.20;62.80;;;;;;5078942;28;20024;-72
2020/12/31 10:42:17;;;;;;;0.80;0.50;;;10.60;64.60;;;;;;5096819;28;20382;-72
2020/12/31 10:44:43;;;;;;;3.90;0.88;;;10.10;66.50;;;;;;5097024;28;20111;-72
2020/12/31 10:47:09;;;;;;;3.22;1.05;;;9.80;67.60;;;;;;5096807;28;20020;-72
2020/12/31 10:49:34;;;;;;;1.63;0.90;;;10.30;67.80;;;;;;5096534;28;20052;-72
2020/12/31 10:52:01;;;;;;;2.05;1.48;;;11.30;63.70;;;;;;5078892;28;20048;-72
2020/12/31 10:54:26;;;;;;;1.85;1.42;;;11.90;58.20;;;;;;5097184;28;20036;-72
2020/12/31 10:56:56;;;;;;;1.77;1.13;;;12.40;58.30;;;;;;5078720;28;20415;-72
2020/12/31 10:59:21;;;;;;;2.30;1.15;;;12.10;58.60;;;;;;5096633;28;20319;-72
2020/12/31 11:01:53;;;;;;;1.55;0.98;;;12.00;58.30;;;;;;5096637;28;20020;-72
2020/12/31 11:04:22;;;;;;;2.30;1.00;;;12.40;59.30;;;;;;5096563;28;20031;-72
2020/12/31 11:06:48;;;;;;;2.10;0.82;;;12.40;58.50;;;;;;5078690;28;20032;-72
2020/12/31 11:09:14;;;;;;;1.77;0.95;;;12.70;57.60;;;;;;5096548;28;20464;-72
2020/12/31 11:11:41;;;;;;;1.73;1.13;;;12.80;55.70;;;;;;5096526;28;20099;-72
2020/12/31 11:14:07;;;;;;;1.77;1.00;;;12.90;56.10;;;;;;5096524;28;20031;-72
2020/12/31 11:16:33;;;;;;;1.52;1.10;;;13.00;56.00;;;;;;5096595;28;20024;-72
2020/12/31 11:18:59;;;;;;;1.40;1.02;;;13.40;58.90;;;;;;5078568;28;20034;-72
2020/12/31 11:21:24;;;;;;;1.88;1.15;;;13.40;55.70;;;;;;5096449;28;20293;-72
2020/12/31 11:23:50;;;;;;;1.70;1.17;;;12.90;56.60;;;;;;5078618;28;20032;-72
2020/12/31 11:26:21;;;;;;;2.42;1.00;;;13.10;55.00;;;;;;5096373;28;20032;-72
2020/12/31 11:28:51;;;;;;;2.40;1.15;;;13.40;55.80;;;;;;5096521;28;20038;-72
2020/12/31 11:31:35;;;;;;;2.33;1.15;;;13.50;53.10;;;;;;5096648;28;20025;-72
2020/12/31 11:34:00;;;;;;;1.52;1.23;;;13.80;55.90;;;;;;5096434;28;20028;-72
2020/12/31 11:36:27;;;;;;;1.75;1.20;;;13.80;52.90;;;;;;5096503;28;20024;-72
2020/12/31 11:38:55;;;;;;;1.77;1.30;;;13.40;53.10;;;;;;5096503;28;20026;-72
2020/12/31 11:41:21;;;;;;;1.55;1.00;;;12.90;54.80;;;;;;5096371;28;20073;-72
2020/12/31 11:43:47;;;;;;;1.40;1.05;;;12.80;52.70;;;;;;5078358;28;20024;-72
2020/12/31 11:46:13;;;;;;;1.55;1.17;;;12.70;53.80;;;;;;5096158;28;20089;-72
2020/12/31 11:48:39;;;;;;;2.28;1.50;;;12.60;55.70;;;;;;5096009;28;20048;-72
2020/12/31 11:51:08;;;;;;;2.10;1.40;;;11.90;53.90;;;;;;5098926;28;20081;-71
2020/12/31 11:53:34;;;;;;;2.05;1.42;;;11.50;55.40;;;;;;5099704;28;20099;-72
2020/12/31 11:56:01;;;;;;;1.95;1.42;;;11.40;58.20;;;;;;5081618;28;20178;-71
2020/12/31 11:58:27;;;;;;;2.38;1.90;;;10.90;54.90;;;;;;5099683;28;20047;-71
2020/12/31 12:00:53;;;;;;;2.45;1.30;;;10.00;60.00;;;;;;5081762;28;20024;-72
2020/12/31 12:03:19;;;;;;;2.25;1.73;;;10.20;59.60;;;;;;5099628;28;20426;-71
2020/12/31 12:05:45;;;;;;;2.58;1.70;;;10.40;58.30;;;;;;5081631;28;20028;-71
2020/12/31 12:08:11;;;;;;;1.52;1.20;;;10.20;58.00;;;;;;5099568;28;20459;-71
2020/12/31 12:10:36;;;;;;;2.08;1.30;;;10.00;58.00;;;;;;5081532;28;20323;-72
2020/12/31 12:13:02;;;;;;;1.83;1.40;;;10.30;59.30;;;;;;5099660;28;20328;-71
2020/12/31 12:15:28;;;;;;;1.85;1.30;;;10.40;59.00;;;;;;5099303;28;20032;-72
2020/12/31 12:17:54;;;;;;;1.70;1.30;;;10.80;57.60;;;;;;5099466;28;20028;-72
2020/12/31 12:20:19;;;;;;;3.58;1.50;;;11.20;56.90;;;;;;5099288;28;20020;-72
2020/12/31 12:22:45;;;;;;;1.77;1.33;;;11.70;57.40;;;;;;5099284;28;20018;-72
2020/12/31 12:25:14;;;;;;;1.02;0.65;;;11.90;55.80;;;;;;5099218;28;20331;-72
2020/12/31 12:27:43;;;;;;;1.35;0.60;;;11.80;54.70;;;;;;5099750;28;20029;-72
2020/12/31 12:30:10;;;;;;;0.50;0.32;;;11.80;53.50;;;;;;5099175;28;20442;-72
2020/12/31 12:32:39;;;;;;;1.67;1.20;;;11.90;54.00;;;;;;5081133;28;20016;-72
2020/12/31 12:35:08;;;;;;;1.25;0.90;;;11.90;53.30;;;;;;5081035;28;20066;-72
2020/12/31 12:37:34;;;;;;;2.42;1.25;;;11.40;54.30;;;;;;5099158;28;20039;-72
2020/12/31 12:40:00;;;;;;;1.20;0.90;;;10.90;54.80;;;;;;5098937;28;20409;-72
2020/12/31 12:42:26;;;;;;;1.10;0.60;;;10.70;55.10;;;;;;5098922;28;20069;-72
2020/12/31 12:44:52;;;;;;;0.47;0.35;;;10.40;55.80;;;;;;5098732;28;20051;-71
2020/12/31 12:47:17;;;;;;;1.20;0.43;;;10.30;58.20;;;;;;5098755;28;20435;-72
2020/12/31 12:49:45;;;;;;;1.02;0.57;;;10.40;56.40;;;;;;5098447;28;20047;-72
2020/12/31 12:52:11;;;;;;;1.77;0.73;;;10.50;57.30;;;;;;5098715;28;20028;-72
2020/12/31 12:54:36;;;;;;;1.13;0.60;;;10.30;56.80;;;;;;5080885;28;20323;-72
2020/12/31 12:57:02;;;;;;;1.92;1.33;;;10.20;60.80;;;;;;5098530;28;20024;-72
2020/12/31 12:59:28;;;;;;;2.05;1.45;;;10.10;60.10;;;;;;5098525;28;20107;-71
2020/12/31 13:01:54;;;;;;;2.53;1.65;;;9.80;61.60;;;;;;5098090;28;20024;-71